createdAt,value
2023-04-05T00:00:33.698Z,4.15
2023-04-05T00:01:33.744Z,4.12
2023-04-05T00:02:33.715Z,4.11
2023-04-05T00:03:33.767Z,4.08
2023-04-05T00:04:33.813Z,4.11
2023-04-05T00:05:33.667Z,4.15
2023-04-05T00:06:33.682Z,4.05
2023-04-05T00:07:33.660Z,3.98
2023-04-05T00:08:33.653Z,3.94
2023-04-05T00:09:33.648Z,3.96
2023-04-05T00:10:33.646Z,3.97
2023-04-05T00:11:33.637Z,4.06
2023-04-05T00:12:33.637Z,3.94
2023-04-05T00:13:33.633Z,3.86
2023-04-05T00:14:33.624Z,3.83
2023-04-05T00:15:33.635Z,3.88
2023-04-05T00:16:33.636Z,3.87
2023-04-05T00:17:33.654Z,3.80
2023-04-05T00:18:33.603Z,3.79
2023-04-05T00:19:33.604Z,3.70
2023-04-05T00:20:33.600Z,3.68
2023-04-05T00:21:33.586Z,3.70
2023-04-05T00:22:33.582Z,3.65
2023-04-05T00:23:33.578Z,3.73
2023-04-05T00:24:33.576Z,3.70
2023-04-05T00:25:33.572Z,3.80
2023-04-05T00:26:33.567Z,3.68
2023-04-05T00:27:33.555Z,3.78
2023-04-05T00:28:33.556Z,3.62
2023-04-05T00:29:33.547Z,3.60
2023-04-05T00:30:33.546Z,3.55
2023-04-05T00:31:33.578Z,3.48
2023-04-05T00:32:33.573Z,3.42
2023-04-05T00:33:33.526Z,3.57
2023-04-05T00:34:33.567Z,3.51
2023-04-05T00:35:33.568Z,3.48
2023-04-05T00:36:33.508Z,3.47
2023-04-05T00:37:33.501Z,3.55
2023-04-05T00:38:33.504Z,3.57
2023-04-05T00:39:33.490Z,3.43
2023-04-05T00:40:33.499Z,3.52
2023-04-05T00:41:33.475Z,3.43
2023-04-05T00:42:33.478Z,3.36
2023-04-05T00:43:33.469Z,3.33
2023-04-05T00:44:33.463Z,3.42
2023-04-05T00:45:33.460Z,3.33
2023-04-05T00:46:33.501Z,3.23
2023-04-05T00:47:33.519Z,3.21
2023-04-05T00:48:33.443Z,3.23
2023-04-05T00:49:33.446Z,3.24
2023-04-05T00:50:33.433Z,3.33
2023-04-05T00:51:33.426Z,3.42
2023-04-05T00:52:33.426Z,3.47
2023-04-05T00:53:33.421Z,3.52
2023-04-05T00:54:33.432Z,3.47
2023-04-05T00:55:33.403Z,3.48
2023-04-05T00:56:34.965Z,3.35
2023-04-05T00:57:33.393Z,3.23
2023-04-05T00:58:33.415Z,3.20
2023-04-05T00:59:33.466Z,3.21
2023-04-05T01:00:33.380Z,3.18
2023-04-05T01:01:33.407Z,2.99
2023-04-05T01:02:33.380Z,3.06
2023-04-05T01:03:33.381Z,3.00
2023-04-05T01:04:33.400Z,2.97
2023-04-05T01:05:33.358Z,2.99
2023-04-05T01:06:33.345Z,2.97
2023-04-05T01:07:33.338Z,2.95
2023-04-05T01:08:33.328Z,2.90
2023-04-05T01:09:33.317Z,2.78
2023-04-05T01:10:33.324Z,2.77
2023-04-05T01:11:33.318Z,2.67
2023-04-05T01:12:33.307Z,2.64
2023-04-05T01:13:33.301Z,2.60
2023-04-05T01:14:33.297Z,2.59
2023-04-05T01:15:33.381Z,2.57
2023-04-05T01:16:33.288Z,2.72
2023-04-05T01:17:33.280Z,2.64
2023-04-05T01:18:33.270Z,2.60
2023-04-05T01:19:33.294Z,2.57
2023-04-05T01:20:33.258Z,2.59
2023-04-05T01:21:33.249Z,2.60
2023-04-05T01:22:33.247Z,2.59
2023-04-05T01:23:33.245Z,2.56
2023-04-05T01:24:33.235Z,2.43
2023-04-05T01:25:33.234Z,2.53
2023-04-05T01:26:33.235Z,2.56
2023-04-05T01:27:33.223Z,2.53
2023-04-05T01:28:33.211Z,2.43
2023-04-05T01:29:33.218Z,2.56
2023-04-05T01:30:33.208Z,2.52
2023-04-05T01:31:33.218Z,2.39
2023-04-05T01:32:33.225Z,2.38
2023-04-05T01:33:33.184Z,2.39
2023-04-05T01:34:33.179Z,2.39
2023-04-05T01:35:33.208Z,2.36
2023-04-05T01:36:33.164Z,2.30
2023-04-05T01:37:33.154Z,2.42
2023-04-05T01:38:33.154Z,2.38
2023-04-05T01:39:33.149Z,2.45
2023-04-05T01:40:33.147Z,2.49
2023-04-05T01:41:33.140Z,2.48
2023-04-05T01:42:33.134Z,2.43
2023-04-05T01:43:33.126Z,2.67
2023-04-05T01:44:33.136Z,2.89
2023-04-05T01:45:33.114Z,2.99
2023-04-05T01:46:33.165Z,3.02
2023-04-05T01:47:33.113Z,3.17
2023-04-05T01:48:33.098Z,3.21
2023-04-05T01:49:33.090Z,3.23
2023-04-05T01:50:33.081Z,3.31
2023-04-05T01:51:33.338Z,3.40
2023-04-05T01:52:33.073Z,3.45
2023-04-05T01:53:33.059Z,3.50
2023-04-05T01:54:33.062Z,3.52
2023-04-05T01:55:33.053Z,3.45
2023-04-05T01:56:33.047Z,3.47
2023-04-05T01:57:33.039Z,3.52
2023-04-05T01:58:33.034Z,3.58
2023-04-05T01:59:33.089Z,3.55
2023-04-05T02:00:33.044Z,3.69
2023-04-05T02:01:33.163Z,3.69
2023-04-05T02:02:33.113Z,3.72
2023-04-05T02:03:33.048Z,3.79
2023-04-05T02:04:33.004Z,3.79
2023-04-05T02:05:33.000Z,3.70
2023-04-05T02:06:32.995Z,3.78
2023-04-05T02:07:33.011Z,3.86
2023-04-05T02:08:32.977Z,3.86
2023-04-05T02:09:32.973Z,3.83
2023-04-05T02:10:32.968Z,3.87
2023-04-05T02:11:32.966Z,3.93
2023-04-05T02:12:32.957Z,3.90
2023-04-05T02:13:32.947Z,3.94
2023-04-05T02:14:32.945Z,3.96
2023-04-05T02:15:32.937Z,3.90
2023-04-05T02:16:32.994Z,3.90
2023-04-05T02:17:32.947Z,3.91
2023-04-05T02:18:32.936Z,3.88
2023-04-05T02:19:32.918Z,4.04
2023-04-05T02:20:32.915Z,4.09
2023-04-05T02:21:32.903Z,4.14
2023-04-05T02:22:33.403Z,4.12
2023-04-05T02:23:32.917Z,4.11
2023-04-05T02:24:32.886Z,4.12
2023-04-05T02:25:32.879Z,4.26
2023-04-05T02:26:32.871Z,4.29
2023-04-05T02:27:32.864Z,4.26
2023-04-05T02:28:32.866Z,4.14
2023-04-05T02:29:33.179Z,4.20
2023-04-05T02:30:32.857Z,4.12
2023-04-05T02:31:32.870Z,4.32
2023-04-05T02:32:33.356Z,4.36
2023-04-05T02:33:32.835Z,4.34
2023-04-05T02:34:32.830Z,4.40
2023-04-05T02:35:32.839Z,4.44
2023-04-05T02:36:32.820Z,4.42
2023-04-05T02:37:32.823Z,4.44
2023-04-05T02:38:32.809Z,4.54
2023-04-05T02:39:32.829Z,4.65
2023-04-05T02:40:32.799Z,4.54
2023-04-05T02:41:32.789Z,4.60
2023-04-05T02:42:32.795Z,4.66
2023-04-05T02:43:32.777Z,4.70
2023-04-05T02:44:32.775Z,4.73
2023-04-05T02:45:32.799Z,4.65
2023-04-05T02:46:32.760Z,4.70
2023-04-05T02:47:32.782Z,4.77
2023-04-05T02:48:32.762Z,4.77
2023-04-05T02:49:32.758Z,4.75
2023-04-05T02:50:32.741Z,4.73
2023-04-05T02:51:32.732Z,4.89
2023-04-05T02:52:32.730Z,4.92
2023-04-05T02:53:32.722Z,4.84
2023-04-05T02:54:32.717Z,4.86
2023-04-05T02:55:32.732Z,4.86
2023-04-05T02:56:32.709Z,4.89
2023-04-05T02:57:32.701Z,4.94
2023-04-05T02:58:32.706Z,4.99
2023-04-05T02:59:32.728Z,5.03
2023-04-05T03:00:32.687Z,4.99
2023-04-05T03:01:32.769Z,4.99
2023-04-05T03:02:32.726Z,4.94
2023-04-05T03:03:32.678Z,5.00
2023-04-05T03:04:32.667Z,4.97
2023-04-05T03:05:32.654Z,4.94
2023-04-05T03:06:32.652Z,4.96
2023-04-05T03:07:32.652Z,4.96
2023-04-05T03:08:32.657Z,5.03
2023-04-05T03:09:32.633Z,5.06
2023-04-05T03:10:32.634Z,5.09
2023-04-05T03:11:34.072Z,5.15
2023-04-05T03:12:32.621Z,5.22
2023-04-05T03:13:32.614Z,5.24
2023-04-05T03:14:32.612Z,5.18
2023-04-05T03:15:32.601Z,5.22
2023-04-05T03:16:32.647Z,5.24
2023-04-05T03:17:32.611Z,5.27
2023-04-05T03:18:32.810Z,5.21
2023-04-05T03:19:32.580Z,5.22
2023-04-05T03:20:32.576Z,5.28
2023-04-05T03:21:32.574Z,5.28
2023-04-05T03:22:32.566Z,5.25
2023-04-05T03:23:32.567Z,5.25
2023-04-05T03:24:32.557Z,5.25
2023-04-05T03:25:32.553Z,5.28
2023-04-05T03:26:32.560Z,5.24
2023-04-05T03:27:32.572Z,5.22
2023-04-05T03:28:32.653Z,5.28
2023-04-05T03:29:32.532Z,5.27
2023-04-05T03:30:32.527Z,5.25
2023-04-05T03:31:32.566Z,5.28
2023-04-05T03:32:32.535Z,5.27
2023-04-05T03:33:32.508Z,5.24
2023-04-05T03:34:32.503Z,5.17
2023-04-05T03:35:32.578Z,5.18
2023-04-05T03:36:32.495Z,5.20
2023-04-05T03:37:32.490Z,5.18
2023-04-05T03:38:32.495Z,5.02
2023-04-05T03:39:32.478Z,5.04
2023-04-05T03:40:32.476Z,5.07
2023-04-05T03:41:32.473Z,4.99
2023-04-05T03:42:32.464Z,4.97
2023-04-05T03:43:32.479Z,5.07
2023-04-05T03:44:32.456Z,5.00
2023-04-05T03:45:32.451Z,5.03
2023-04-05T03:46:32.549Z,4.99
2023-04-05T03:47:32.454Z,5.00
2023-04-05T03:48:32.435Z,4.86
2023-04-05T03:49:32.428Z,4.84
2023-04-05T03:51:32.420Z,4.58
2023-04-05T03:52:32.416Z,4.55
2023-04-05T03:53:32.412Z,4.50
2023-04-05T03:54:32.401Z,4.47
2023-04-05T03:55:32.399Z,4.48
2023-04-05T03:56:32.402Z,4.55
2023-04-05T03:57:32.384Z,4.62
2023-04-05T03:58:32.379Z,4.70
2023-04-05T03:59:32.489Z,4.69
2023-04-05T04:00:32.389Z,4.72
2023-04-05T04:01:32.366Z,4.72
2023-04-05T04:02:32.436Z,4.82
2023-04-05T04:03:32.348Z,4.91
2023-04-05T04:04:32.379Z,4.94
2023-04-05T04:05:32.343Z,4.88
2023-04-05T04:06:32.391Z,4.91
2023-04-05T04:07:32.338Z,4.99
2023-04-05T04:08:32.320Z,5.02
2023-04-05T04:09:32.325Z,5.00
2023-04-05T04:10:32.309Z,5.04
2023-04-05T04:11:32.308Z,5.04
2023-04-05T04:12:32.298Z,5.03
2023-04-05T04:13:32.301Z,5.07
2023-04-05T04:14:32.288Z,5.17
2023-04-05T04:15:32.326Z,5.31
2023-04-05T04:16:32.413Z,5.28
2023-04-05T04:17:32.300Z,5.27
2023-04-05T04:18:32.274Z,5.33
2023-04-05T04:19:32.268Z,5.35
2023-04-05T04:20:32.276Z,5.28
2023-04-05T04:21:32.255Z,5.45
2023-04-05T04:22:32.254Z,5.40
2023-04-05T04:23:32.267Z,5.43
2023-04-05T04:24:32.246Z,5.40
2023-04-05T04:25:32.236Z,5.40
2023-04-05T04:26:32.230Z,5.40
2023-04-05T04:27:32.219Z,5.48
2023-04-05T04:28:32.223Z,5.48
2023-04-05T04:29:32.252Z,5.51
2023-04-05T04:30:32.212Z,5.56
2023-04-05T04:31:32.249Z,5.51
2023-04-05T04:32:32.230Z,5.53
2023-04-05T04:33:32.192Z,5.53
2023-04-05T04:34:32.189Z,5.48
2023-04-05T04:35:32.257Z,5.46
2023-04-05T04:36:32.180Z,5.49
2023-04-05T04:37:32.188Z,5.40
2023-04-05T04:38:32.176Z,5.43
2023-04-05T04:39:32.160Z,5.42
2023-04-05T04:40:32.168Z,5.40
2023-04-05T04:41:32.151Z,5.39
2023-04-05T04:42:32.148Z,5.48
2023-04-05T04:43:32.141Z,5.40
2023-04-05T04:44:32.138Z,5.40
2023-04-05T04:45:32.206Z,5.48
2023-04-05T04:46:32.129Z,5.51
2023-04-05T04:47:32.145Z,5.46
2023-04-05T04:48:32.122Z,5.51
2023-04-05T04:49:32.106Z,5.38
2023-04-05T04:50:32.118Z,5.36
2023-04-05T04:51:32.099Z,5.27
2023-04-05T04:52:32.098Z,5.33
2023-04-05T04:53:32.088Z,5.33
2023-04-05T04:54:32.089Z,5.33
2023-04-05T04:55:32.083Z,5.33
2023-04-05T04:56:32.080Z,5.39
2023-04-05T04:57:32.077Z,5.27
2023-04-05T04:58:32.068Z,5.30
2023-04-05T04:59:32.141Z,5.42
2023-04-05T05:00:32.060Z,5.51
2023-04-05T05:01:32.182Z,5.49
2023-04-05T05:02:32.088Z,5.51
2023-04-05T05:03:32.081Z,5.46
2023-04-05T05:04:32.140Z,5.53
2023-04-05T05:05:32.034Z,5.60
2023-04-05T05:06:32.032Z,5.56
2023-04-05T05:07:32.024Z,5.78
2023-04-05T05:08:32.022Z,5.79
2023-04-05T05:09:32.021Z,5.79
2023-04-05T05:10:32.015Z,5.93
2023-04-05T05:12:32.006Z,5.93
2023-04-05T05:13:32.004Z,5.91
2023-04-05T05:14:32.315Z,5.96
2023-04-05T05:15:31.988Z,5.97
2023-04-05T05:16:32.042Z,6.00
2023-04-05T05:17:32.036Z,5.91
2023-04-05T05:18:31.967Z,6.00
2023-04-05T05:19:31.995Z,5.93
2023-04-05T05:20:31.961Z,5.86
2023-04-05T05:21:31.963Z,5.91
2023-04-05T05:22:31.947Z,5.94
2023-04-05T05:23:31.953Z,5.96
2023-04-05T05:24:31.937Z,5.90
2023-04-05T05:25:31.943Z,5.90
2023-04-05T05:26:31.928Z,5.96
2023-04-05T05:27:31.927Z,6.08
2023-04-05T05:28:31.924Z,6.14
2023-04-05T05:29:31.919Z,6.11
2023-04-05T05:30:31.922Z,6.14
2023-04-05T05:31:31.979Z,6.14
2023-04-05T05:32:31.926Z,6.18
2023-04-05T05:33:31.903Z,6.15
2023-04-05T05:34:31.905Z,6.17
2023-04-05T05:35:31.990Z,6.22
2023-04-05T05:36:31.881Z,6.22
2023-04-05T05:37:31.911Z,6.28
2023-04-05T05:38:31.901Z,6.22
2023-04-05T05:39:31.869Z,6.30
2023-04-05T05:40:31.862Z,6.27
2023-04-05T05:41:31.874Z,6.37
2023-04-05T05:42:31.848Z,6.31
2023-04-05T05:43:31.866Z,6.41
2023-04-05T05:44:31.856Z,6.37
2023-04-05T05:45:31.840Z,6.44
2023-04-05T05:46:31.838Z,6.54
2023-04-05T05:47:31.908Z,6.55
2023-04-05T05:48:31.828Z,6.49
2023-04-05T05:49:31.825Z,6.49
2023-04-05T05:50:31.814Z,6.55
2023-04-05T05:51:31.835Z,6.62
2023-04-05T05:52:31.826Z,6.61
2023-04-05T05:53:31.801Z,6.64
2023-04-05T05:54:31.792Z,6.70
2023-04-05T05:55:31.800Z,6.81
2023-04-05T05:56:31.794Z,6.81
2023-04-05T05:57:31.856Z,6.76
2023-04-05T05:58:31.785Z,6.97
2023-04-05T05:59:31.838Z,6.95
2023-04-05T06:00:31.792Z,7.09
2023-04-05T06:01:31.765Z,7.10
2023-04-05T06:02:31.778Z,7.15
2023-04-05T06:03:32.015Z,7.16
2023-04-05T06:04:31.796Z,7.23
2023-04-05T06:05:31.775Z,7.30
2023-04-05T06:06:31.744Z,7.39
2023-04-05T06:07:31.764Z,7.43
2023-04-05T06:08:31.735Z,7.43
2023-04-05T06:09:31.743Z,7.43
2023-04-05T06:10:31.738Z,7.45
2023-04-05T06:11:31.736Z,7.52
2023-04-05T06:12:31.721Z,7.50
2023-04-05T06:13:31.733Z,7.55
2023-04-05T06:14:31.710Z,7.71
2023-04-05T06:15:31.706Z,7.75
2023-04-05T06:16:31.718Z,7.74
2023-04-05T06:17:31.745Z,7.75
2023-04-05T06:18:31.690Z,7.95
2023-04-05T06:19:31.689Z,7.97
2023-04-05T06:20:31.686Z,8.05
2023-04-05T06:21:31.696Z,8.15
2023-04-05T06:22:31.686Z,8.10
2023-04-05T06:23:31.701Z,8.07
2023-04-05T06:24:31.700Z,8.22
2023-04-05T06:25:31.682Z,8.26
2023-04-05T06:26:31.662Z,8.23
2023-04-05T06:27:31.656Z,8.28
2023-04-05T06:28:31.646Z,8.30
2023-04-05T06:29:31.644Z,8.29
2023-04-05T06:30:31.639Z,8.30
2023-04-05T06:31:31.724Z,8.30
2023-04-05T06:32:31.669Z,8.29
2023-04-05T06:33:31.632Z,8.37
2023-04-05T06:34:31.622Z,8.44
2023-04-05T06:35:31.633Z,8.41
2023-04-05T06:36:31.642Z,8.47
2023-04-05T06:37:31.612Z,8.56
2023-04-05T06:38:31.603Z,8.58
2023-04-05T06:39:31.626Z,8.70
2023-04-05T06:40:31.599Z,8.73
2023-04-05T06:41:31.593Z,8.76
2023-04-05T06:42:31.591Z,8.79
2023-04-05T06:43:31.588Z,8.83
2023-04-05T06:44:31.577Z,8.83
2023-04-05T06:45:31.615Z,8.91
2023-04-05T06:46:31.574Z,8.89
2023-04-05T06:47:31.629Z,8.94
2023-04-05T06:48:31.570Z,9.02
2023-04-05T06:49:31.560Z,9.02
2023-04-05T06:50:31.556Z,9.11
2023-04-05T06:51:31.589Z,9.10
2023-04-05T06:52:31.546Z,9.11
2023-04-05T06:53:31.554Z,9.17
2023-04-05T06:54:31.539Z,9.20
2023-04-05T06:55:31.566Z,9.24
2023-04-05T06:56:31.551Z,9.23
2023-04-05T06:57:31.540Z,9.23
2023-04-05T06:58:31.535Z,9.20
2023-04-05T06:59:31.544Z,9.26
2023-04-05T07:00:31.518Z,9.26
2023-04-05T07:01:31.560Z,9.33
2023-04-05T07:02:33.119Z,9.31
2023-04-05T07:03:31.519Z,9.28
2023-04-05T07:04:31.580Z,9.32
2023-04-05T07:05:31.517Z,9.40
2023-04-05T07:06:31.499Z,9.46
2023-04-05T07:07:31.502Z,9.48
2023-04-05T07:08:31.499Z,9.46
2023-04-05T07:09:31.511Z,9.60
2023-04-05T07:10:31.488Z,9.69
2023-04-05T07:11:31.526Z,9.76
2023-04-05T07:12:31.486Z,9.79
2023-04-05T07:13:31.493Z,9.91
2023-04-05T07:14:31.486Z,10.04
2023-04-05T07:15:31.486Z,10.01
2023-04-05T07:16:31.503Z,10.05
2023-04-05T07:17:31.506Z,10.25
2023-04-05T07:18:31.468Z,10.45
2023-04-05T07:19:31.470Z,10.45
2023-04-05T07:20:31.454Z,10.66
2023-04-05T07:21:31.457Z,10.85
2023-04-05T07:22:31.452Z,10.85
2023-04-05T07:23:31.458Z,11.03
2023-04-05T07:24:31.448Z,11.21
2023-04-05T07:25:31.454Z,11.29
2023-04-05T07:26:31.436Z,11.42
2023-04-05T07:27:31.468Z,11.52
2023-04-05T07:28:31.436Z,11.72
2023-04-05T07:30:31.435Z,12.79
2023-04-05T07:31:31.464Z,13.10
2023-04-05T07:32:31.534Z,13.57
2023-04-05T07:33:31.439Z,13.88
2023-04-05T07:34:31.420Z,14.20
2023-04-05T07:35:31.816Z,14.33
2023-04-05T07:36:31.424Z,14.32
2023-04-05T07:37:31.411Z,14.40
2023-04-05T07:38:31.413Z,14.17
2023-04-05T07:39:31.406Z,13.67
2023-04-05T07:40:31.405Z,13.29
2023-04-05T07:41:31.402Z,13.12
2023-04-05T07:42:31.402Z,13.19
2023-04-05T07:43:31.421Z,13.10
2023-04-05T07:44:31.406Z,13.20
2023-04-05T07:45:31.401Z,13.05
2023-04-05T07:46:31.470Z,13.15
2023-04-05T07:47:31.445Z,13.17
2023-04-05T07:48:31.402Z,14.12
2023-04-05T07:49:31.390Z,15.29
2023-04-05T07:50:31.991Z,16.04
2023-04-05T07:51:31.390Z,16.31
2023-04-05T07:52:31.388Z,16.49
2023-04-05T07:53:31.382Z,16.42
2023-04-05T07:54:31.383Z,16.83
2023-04-05T07:55:31.379Z,16.75
2023-04-05T07:56:31.380Z,17.21
2023-04-05T07:57:31.377Z,17.41
2023-04-05T07:58:31.378Z,16.98
2023-04-05T07:59:31.409Z,16.66
2023-04-05T08:00:31.378Z,16.12
2023-04-05T08:01:31.378Z,16.39
2023-04-05T08:02:31.418Z,16.52
2023-04-05T08:03:31.530Z,16.86
2023-04-05T08:04:31.371Z,16.83
2023-04-05T08:05:31.387Z,16.85
2023-04-05T08:06:31.366Z,16.85
2023-04-05T08:07:31.358Z,16.98
2023-04-05T08:08:31.372Z,17.84
2023-04-05T08:09:31.358Z,18.15
2023-04-05T08:10:31.374Z,18.32
2023-04-05T08:11:31.356Z,18.58
2023-04-05T08:12:31.360Z,17.75
2023-04-05T08:13:31.362Z,17.00
2023-04-05T08:14:31.360Z,16.49
2023-04-05T08:15:31.374Z,17.01
2023-04-05T08:16:31.430Z,16.75
2023-04-05T08:17:31.387Z,16.83
2023-04-05T08:18:31.357Z,17.21
2023-04-05T08:19:31.364Z,18.42
2023-04-05T08:20:31.355Z,19.41
2023-04-05T08:21:31.354Z,19.63
2023-04-05T08:22:31.356Z,19.92
2023-04-05T08:23:31.358Z,20.13
2023-04-05T08:24:31.448Z,19.91
2023-04-05T08:25:31.372Z,19.71
2023-04-05T08:26:31.370Z,19.51
2023-04-05T08:27:31.367Z,18.66
2023-04-05T08:28:31.359Z,18.20
2023-04-05T08:29:31.358Z,18.00
2023-04-05T08:30:31.362Z,17.77
2023-04-05T08:31:31.475Z,17.00
2023-04-05T08:32:31.383Z,16.61
2023-04-05T08:33:31.428Z,15.96
2023-04-05T08:34:31.358Z,15.74
2023-04-05T08:35:31.361Z,15.28
2023-04-05T08:36:31.358Z,15.10
2023-04-05T08:37:31.366Z,15.27
2023-04-05T08:38:31.359Z,15.71
2023-04-05T08:39:31.357Z,15.74
2023-04-05T08:40:31.355Z,16.17
2023-04-05T08:41:31.362Z,16.38
2023-04-05T08:42:31.389Z,16.28
2023-04-05T08:43:31.359Z,16.38
2023-04-05T08:44:31.389Z,16.46
2023-04-05T08:45:31.389Z,16.88
2023-04-05T08:46:31.365Z,17.07
2023-04-05T08:47:31.407Z,16.71
2023-04-05T08:48:31.379Z,16.38
2023-04-05T08:49:31.370Z,16.12
2023-04-05T08:50:31.372Z,15.57
2023-04-05T08:51:31.379Z,15.60
2023-04-05T08:52:31.373Z,15.65
2023-04-05T08:53:31.373Z,15.89
2023-04-05T08:54:31.369Z,16.02
2023-04-05T08:55:31.375Z,16.05
2023-04-05T08:56:31.398Z,15.68
2023-04-05T08:57:31.388Z,15.50
2023-04-05T08:58:31.376Z,15.56
2023-04-05T08:59:31.420Z,15.92
2023-04-05T09:00:31.369Z,16.35
2023-04-05T09:01:31.405Z,16.83
2023-04-05T09:02:31.427Z,17.28
2023-04-05T09:03:31.622Z,17.90
2023-04-05T09:04:31.387Z,18.18
2023-04-05T09:05:31.378Z,17.99
2023-04-05T09:06:31.371Z,17.82
2023-04-05T09:07:31.400Z,17.75
2023-04-05T09:08:31.389Z,17.62
2023-04-05T09:09:31.391Z,17.58
2023-04-05T09:10:31.380Z,17.43
2023-04-05T09:11:31.387Z,17.49
2023-04-05T09:12:31.379Z,17.58
2023-04-05T09:13:31.397Z,17.63
2023-04-05T09:14:31.394Z,17.74
2023-04-05T09:15:31.387Z,17.79
2023-04-05T09:16:31.428Z,17.72
2023-04-05T09:17:31.407Z,17.66
2023-04-05T09:18:31.407Z,17.30
2023-04-05T09:19:31.422Z,17.12
2023-04-05T09:20:31.379Z,16.93
2023-04-05T09:21:31.384Z,16.67
2023-04-05T09:22:31.404Z,16.67
2023-04-05T09:23:31.396Z,16.64
2023-04-05T09:24:31.386Z,16.60
2023-04-05T09:25:31.393Z,16.43
2023-04-05T09:26:32.538Z,16.20
2023-04-05T09:27:31.389Z,16.42
2023-04-05T09:28:31.397Z,16.83
2023-04-05T09:29:31.415Z,16.85
2023-04-05T09:30:31.416Z,16.68
2023-04-05T09:31:31.455Z,16.24
2023-04-05T09:32:31.424Z,15.90
2023-04-05T09:33:31.389Z,15.46
2023-04-05T09:34:31.386Z,15.41
2023-04-05T09:35:31.446Z,15.41
2023-04-05T09:36:31.394Z,14.83
2023-04-05T09:37:31.395Z,14.64
2023-04-05T09:38:31.397Z,14.45
2023-04-05T09:39:31.393Z,14.39
2023-04-05T09:40:31.395Z,14.12
2023-04-05T09:41:31.395Z,14.09
2023-04-05T09:42:31.402Z,14.20
2023-04-05T09:43:31.400Z,14.18
2023-04-05T09:44:31.397Z,14.24
2023-04-05T09:45:31.399Z,14.32
2023-04-05T09:46:31.483Z,14.33
2023-04-05T09:47:31.684Z,14.89
2023-04-05T09:48:31.393Z,15.06
2023-04-05T09:49:31.393Z,15.31
2023-04-05T09:50:31.402Z,15.41
2023-04-05T09:51:31.425Z,15.43
2023-04-05T09:52:31.394Z,15.13
2023-04-05T09:53:31.403Z,14.99
2023-04-05T09:54:31.395Z,14.43
2023-04-05T09:55:31.397Z,14.24
2023-04-05T09:56:31.395Z,14.61
2023-04-05T09:57:31.411Z,15.14
2023-04-05T09:58:31.389Z,15.86
2023-04-05T09:59:31.525Z,16.24
2023-04-05T10:00:31.401Z,16.42
2023-04-05T10:01:31.409Z,16.60
2023-04-05T10:02:31.456Z,16.88
2023-04-05T10:03:31.497Z,17.14
2023-04-05T10:04:31.394Z,17.37
2023-04-05T10:05:31.395Z,17.46
2023-04-05T10:06:31.388Z,17.79
2023-04-05T10:07:31.409Z,17.93
2023-04-05T10:08:31.407Z,18.02
2023-04-05T10:09:31.398Z,17.87
2023-04-05T10:10:31.388Z,17.66
2023-04-05T10:11:31.396Z,17.40
2023-04-05T10:12:31.387Z,17.22
2023-04-05T10:13:31.399Z,17.18
2023-04-05T10:14:31.392Z,17.08
2023-04-05T10:15:31.399Z,16.85
2023-04-05T10:16:31.447Z,17.01
2023-04-05T10:17:31.412Z,16.76
2023-04-05T10:18:31.393Z,16.41
2023-04-05T10:19:31.413Z,16.14
2023-04-05T10:20:31.390Z,15.80
2023-04-05T10:21:31.393Z,14.91
2023-04-05T10:22:31.390Z,14.72
2023-04-05T10:23:31.427Z,14.81
2023-04-05T10:24:31.389Z,15.16
2023-04-05T10:25:31.392Z,15.43
2023-04-05T10:26:31.395Z,15.68
2023-04-05T10:27:31.442Z,15.87
2023-04-05T10:28:31.631Z,15.75
2023-04-05T10:29:31.398Z,15.69
2023-04-05T10:30:31.396Z,15.72
2023-04-05T10:31:37.831Z,15.49
2023-04-05T10:32:31.492Z,15.32
2023-04-05T10:33:31.456Z,15.41
2023-04-05T10:34:31.454Z,15.49
2023-04-05T10:35:31.399Z,15.69
2023-04-05T10:36:31.470Z,15.84
2023-04-05T10:37:31.399Z,15.87
2023-04-05T10:38:31.401Z,15.94
2023-04-05T10:39:31.477Z,16.08
2023-04-05T10:40:31.393Z,16.12
2023-04-05T10:41:31.396Z,16.07
2023-04-05T10:42:31.437Z,16.17
2023-04-05T10:43:31.403Z,16.27
2023-04-05T10:44:31.399Z,16.42
2023-04-05T10:45:32.636Z,16.58
2023-04-05T10:46:31.421Z,16.57
2023-04-05T10:47:31.425Z,16.67
2023-04-05T10:48:31.484Z,16.64
2023-04-05T10:49:31.406Z,16.61
2023-04-05T10:50:31.397Z,16.50
2023-04-05T10:51:31.397Z,16.30
2023-04-05T10:52:31.421Z,16.38
2023-04-05T10:53:31.446Z,16.42
2023-04-05T10:54:31.398Z,16.56
2023-04-05T10:55:31.437Z,16.45
2023-04-05T10:56:31.439Z,16.41
2023-04-05T10:57:31.404Z,16.35
2023-04-05T10:58:31.393Z,16.50
2023-04-05T10:59:31.444Z,16.52
2023-04-05T11:00:31.413Z,16.39
2023-04-05T11:01:31.559Z,16.35
2023-04-05T11:02:31.467Z,16.30
2023-04-05T11:03:31.553Z,16.15
2023-04-05T11:04:31.413Z,15.47
2023-04-05T11:05:31.454Z,15.10
2023-04-05T11:06:31.411Z,14.52
2023-04-05T11:07:31.408Z,14.60
2023-04-05T11:08:31.405Z,14.64
2023-04-05T11:09:31.401Z,14.92
2023-04-05T11:10:31.414Z,15.14
2023-04-05T11:11:31.454Z,15.34
2023-04-05T11:12:31.401Z,15.69
2023-04-05T11:13:31.418Z,15.87
2023-04-05T11:14:31.404Z,15.89
2023-04-05T11:15:31.413Z,16.08
2023-04-05T11:16:31.477Z,16.07
2023-04-05T11:17:31.438Z,16.14
2023-04-05T11:18:31.401Z,16.31
2023-04-05T11:19:31.410Z,16.14
2023-04-05T11:20:31.402Z,16.15
2023-04-05T11:21:31.428Z,16.05
2023-04-05T11:22:31.407Z,16.09
2023-04-05T11:23:31.404Z,16.14
2023-04-05T11:24:33.126Z,16.24
2023-04-05T11:25:31.408Z,16.11
2023-04-05T11:26:31.431Z,16.31
2023-04-05T11:27:31.440Z,16.25
2023-04-05T11:28:31.410Z,16.27
2023-04-05T11:29:31.411Z,16.45
2023-04-05T11:30:31.408Z,16.56
2023-04-05T11:31:31.433Z,16.61
2023-04-05T11:32:31.435Z,16.46
2023-04-05T11:33:31.419Z,16.63
2023-04-05T11:34:31.403Z,16.52
2023-04-05T11:35:31.446Z,16.41
2023-04-05T11:36:31.528Z,16.41
2023-04-05T11:37:31.412Z,16.46
2023-04-05T11:38:31.415Z,16.09
2023-04-05T11:39:31.427Z,15.92
2023-04-05T11:40:31.431Z,15.68
2023-04-05T11:41:31.414Z,15.68
2023-04-05T11:42:31.416Z,15.90
2023-04-05T11:43:31.454Z,15.93
2023-04-05T11:44:31.407Z,16.15
2023-04-05T11:45:32.251Z,16.31
2023-04-05T11:46:31.558Z,16.28
2023-04-05T11:47:31.472Z,16.39
2023-04-05T11:48:31.405Z,16.39
2023-04-05T11:49:31.418Z,16.48
2023-04-05T11:50:31.456Z,16.48
2023-04-05T11:51:31.416Z,16.43
2023-04-05T11:52:31.410Z,16.48
2023-04-05T11:53:31.419Z,16.48
2023-04-05T11:54:31.406Z,16.58
2023-04-05T11:55:31.416Z,16.57
2023-04-05T11:56:31.416Z,16.58
2023-04-05T11:57:31.413Z,16.61
2023-04-05T11:58:31.412Z,16.60
2023-04-05T11:59:31.520Z,16.66
2023-04-05T12:00:31.411Z,16.71
2023-04-05T12:01:31.413Z,16.76
2023-04-05T12:02:31.463Z,16.94
2023-04-05T12:03:31.663Z,17.08
2023-04-05T12:04:31.446Z,17.16
2023-04-05T12:05:31.413Z,17.22
2023-04-05T12:06:31.412Z,17.31
2023-04-05T12:07:31.420Z,17.33
2023-04-05T12:08:31.413Z,17.33
2023-04-05T12:09:31.416Z,17.14
2023-04-05T12:10:31.406Z,17.15
2023-04-05T12:11:31.434Z,16.98
2023-04-05T12:12:31.416Z,17.06
2023-04-05T12:13:31.439Z,16.97
2023-04-05T12:14:31.413Z,16.94
2023-04-05T12:15:31.436Z,17.00
2023-04-05T12:16:31.521Z,17.07
2023-04-05T12:17:31.444Z,17.00
2023-04-05T12:18:31.419Z,16.86
2023-04-05T12:19:31.415Z,16.98
2023-04-05T12:20:31.420Z,16.89
2023-04-05T12:21:31.422Z,16.85
2023-04-05T12:22:31.415Z,16.83
2023-04-05T12:23:31.421Z,16.70
2023-04-05T12:24:31.436Z,16.75
2023-04-05T12:25:31.422Z,16.58
2023-04-05T12:26:31.425Z,16.49
2023-04-05T12:27:31.422Z,16.39
2023-04-05T12:28:31.417Z,16.35
2023-04-05T12:29:31.422Z,16.39
2023-04-05T12:30:31.418Z,16.50
2023-04-05T12:31:31.483Z,16.61
2023-04-05T12:32:31.509Z,16.67
2023-04-05T12:33:31.426Z,16.66
2023-04-05T12:34:31.430Z,16.64
2023-04-05T12:35:31.433Z,16.63
2023-04-05T12:36:31.460Z,16.70
2023-04-05T12:37:31.427Z,16.83
2023-04-05T12:38:31.418Z,16.97
2023-04-05T12:39:31.431Z,16.94
2023-04-05T12:40:31.420Z,16.85
2023-04-05T12:41:31.442Z,16.85
2023-04-05T12:42:31.440Z,16.75
2023-04-05T12:43:31.438Z,16.73
2023-04-05T12:44:31.435Z,16.57
2023-04-05T12:45:31.531Z,16.63
2023-04-05T12:46:31.441Z,16.60
2023-04-05T12:47:31.492Z,16.46
2023-04-05T12:48:31.432Z,16.49
2023-04-05T12:49:31.436Z,16.28
2023-04-05T12:50:31.517Z,16.28
2023-04-05T12:51:31.445Z,16.39
2023-04-05T12:52:31.437Z,16.42
2023-04-05T12:53:31.427Z,16.48
2023-04-05T12:54:31.429Z,16.61
2023-04-05T12:55:31.439Z,16.56
2023-04-05T12:56:31.434Z,16.46
2023-04-05T12:57:31.432Z,16.23
2023-04-05T12:58:31.442Z,16.11
2023-04-05T12:59:31.630Z,16.09
2023-04-05T13:00:31.433Z,16.02
2023-04-05T13:01:31.478Z,15.90
2023-04-05T13:02:31.488Z,15.96
2023-04-05T13:03:31.603Z,16.09
2023-04-05T13:04:31.438Z,16.05
2023-04-05T13:05:31.513Z,16.07
2023-04-05T13:06:31.436Z,16.04
2023-04-05T13:07:31.432Z,16.08
2023-04-05T13:08:31.439Z,16.02
2023-04-05T13:09:31.440Z,16.01